Time;durP1;ratioP1;P1;durP2;ratioP2;P2;SDS_P1;SDS_P2;PMS_P1;PMS_P2;Temp;Humidity;BMP_temperature;BMP_pressure;BME280_temperature;BME280_humidity;BME280_pressure;Samples;Min_cycle;Max_cycle;Signal;HPM_P1;HPM_P2
2023/10/10 00:01:45;;;;;;;52.10;27.02;;;;;;;;;;4998763;28;25084;-71
2023/10/10 00:04:11;;;;;;;49.15;28.75;;;;;;;;;;4993304;28;25122;-71
2023/10/10 00:06:38;;;;;;;47.55;27.58;;;;;;;;;;5000736;28;25108;-71
2023/10/10 00:09:11;;;;;;;48.30;28.05;;;;;;;;;;4980279;28;25067;-70
2023/10/10 00:11:45;;;;;;;44.38;26.58;;;;;;;;;;4981023;28;25047;-74
2023/10/10 00:14:22;;;;;;;42.42;25.85;;;;;;;;;;4999147;28;25057;-71
2023/10/10 00:16:54;;;;;;;45.10;26.25;;;;;;;;;;4999499;28;25114;-72
2023/10/10 00:19:37;;;;;;;42.35;25.30;;;;;;;;;;4999309;28;25071;-73
2023/10/10 00:22:07;;;;;;;39.17;24.42;;;;;;;;;;4999436;28;25102;-71
2023/10/10 00:24:33;;;;;;;39.15;23.52;;;;;;;;;;4999233;28;25058;-73
2023/10/10 00:27:06;;;;;;;37.85;23.77;;;;;;;;;;4997619;28;25056;-73
2023/10/10 00:29:33;;;;;;;40.92;24.58;;;;;;;;;;4995837;28;25066;-73
2023/10/10 00:32:09;;;;;;;36.22;23.52;;;;;;;;;;4991882;28;25066;-73
2023/10/10 00:34:37;;;;;;;38.38;22.60;;;;;;;;;;5000637;28;25085;-73
2023/10/10 00:37:08;;;;;;;37.90;25.15;;;;;;;;;;4998914;28;25050;-73
2023/10/10 00:39:36;;;;;;;42.67;25.27;;;;;;;;;;4994162;28;25087;-73
2023/10/10 00:42:05;;;;;;;57.28;31.15;;;;;;;;;;4978919;28;25083;-73
2023/10/10 00:44:31;;;;;;;48.78;31.00;;;;;;;;;;4985055;28;25057;-74
2023/10/10 00:47:02;;;;;;;60.95;32.25;;;;;;;;;;4974012;28;25105;-72
2023/10/10 00:49:31;;;;;;;51.30;30.40;;;;;;;;;;4996382;28;25078;-73
2023/10/10 00:52:01;;;;;;;94.80;35.67;;;;;;;;;;4993988;28;25056;-73
2023/10/10 00:54:31;;;;;;;50.53;31.15;;;;;;;;;;4991228;28;25162;-73
2023/10/10 00:56:59;;;;;;;53.55;32.42;;;;;;;;;;4993346;28;25057;-72
2023/10/10 01:02:20;;;;;;;49.97;30.45;;;;;;;;;;4966614;28;25054;-71
2023/10/10 01:07:20;;;;;;;50.17;33.78;;;;;;;;;;4999358;28;25063;-73
2023/10/10 01:09:56;;;;;;;41.35;30.45;;;;;;;;;;5000483;28;25041;-72
2023/10/10 01:12:26;;;;;;;47.75;31.10;;;;;;;;;;4983608;28;25050;-73
2023/10/10 01:14:57;;;;;;;61.65;32.47;;;;;;;;;;4998470;28;25066;-72
2023/10/10 01:17:29;;;;;;;67.55;32.63;;;;;;;;;;4994105;28;25178;-72
2023/10/10 01:19:58;;;;;;;45.47;26.95;;;;;;;;;;4996860;28;25063;-72
2023/10/10 01:22:37;;;;;;;68.35;28.35;;;;;;;;;;4997168;28;25049;-72
2023/10/10 01:25:27;;;;;;;40.45;26.88;;;;;;;;;;4992683;28;25551;-70
2023/10/10 01:27:53;;;;;;;54.75;30.92;;;;;;;;;;4996144;28;25077;-73
2023/10/10 01:30:19;;;;;;;56.85;34.15;;;;;;;;;;5003368;28;25074;-73
2023/10/10 01:32:50;;;;;;;52.47;33.20;;;;;;;;;;4995017;28;25193;-70
2023/10/10 01:35:16;;;;;;;55.83;33.10;;;;;;;;;;4994626;28;25100;-71
2023/10/10 01:37:54;;;;;;;39.60;29.70;;;;;;;;;;4988904;28;25099;-74
2023/10/10 01:40:20;;;;;;;52.88;32.40;;;;;;;;;;4994944;28;25140;-73
2023/10/10 01:42:59;;;;;;;47.17;33.70;;;;;;;;;;4995991;28;25059;-73
2023/10/10 01:45:27;;;;;;;74.57;32.92;;;;;;;;;;4976963;28;25063;-72
2023/10/10 01:48:26;;;;;;;59.63;33.85;;;;;;;;;;4990627;28;25069;-71
2023/10/10 01:50:46;;;;;;;46.95;29.25;;;;;;;;;;4993314;28;25080;-72
2023/10/10 01:53:12;;;;;;;71.22;38.67;;;;;;;;;;4997867;28;25111;-72
2023/10/10 01:55:38;;;;;;;42.72;31.77;;;;;;;;;;4973023;28;25169;-73
2023/10/10 01:58:10;;;;;;;73.60;36.38;;;;;;;;;;4994551;28;25057;-70
2023/10/10 02:00:36;;;;;;;57.08;32.22;;;;;;;;;;4994938;28;25053;-73
2023/10/10 02:03:12;;;;;;;68.35;37.63;;;;;;;;;;4997110;28;25094;-73
2023/10/10 02:08:09;;;;;;;57.28;36.65;;;;;;;;;;4992278;28;25061;-72
2023/10/10 02:10:43;;;;;;;87.30;38.53;;;;;;;;;;4993267;28;25062;-72
2023/10/10 02:13:11;;;;;;;63.63;35.60;;;;;;;;;;4996461;28;25060;-73
2023/10/10 02:15:39;;;;;;;72.57;40.13;;;;;;;;;;4997458;28;25055;-72
2023/10/10 02:18:12;;;;;;;59.63;35.15;;;;;;;;;;4996180;28;25076;-72
2023/10/10 02:25:45;;;;;;;124.20;46.50;;;;;;;;;;4997444;28;25078;-70
2023/10/10 02:30:46;;;;;;;64.40;34.30;;;;;;;;;;4998768;28;25057;-71
2023/10/10 02:35:55;;;;;;;79.18;39.63;;;;;;;;;;4993414;28;25075;-70
2023/10/10 02:38:22;;;;;;;86.38;38.33;;;;;;;;;;4990039;28;25089;-71
2023/10/10 02:40:56;;;;;;;87.18;44.15;;;;;;;;;;4994488;28;25101;-70
2023/10/10 02:43:45;;;;;;;109.97;43.00;;;;;;;;;;4995370;28;25068;-72
2023/10/10 02:46:17;;;;;;;61.72;37.97;;;;;;;;;;4995568;28;25095;-71
2023/10/10 02:48:43;;;;;;;88.18;38.55;;;;;;;;;;4993440;28;25168;-73
2023/10/10 02:51:15;;;;;;;78.22;41.70;;;;;;;;;;4995014;28;25151;-70
2023/10/10 02:53:46;;;;;;;79.07;40.63;;;;;;;;;;4994134;28;25079;-72
2023/10/10 02:56:19;;;;;;;59.13;33.88;;;;;;;;;;4995170;28;25111;-72
2023/10/10 02:58:47;;;;;;;57.67;36.72;;;;;;;;;;4994936;28;25202;-70
2023/10/10 03:01:50;;;;;;;77.47;39.33;;;;;;;;;;4995266;28;25055;-72
2023/10/10 03:04:08;;;;;;;73.10;40.47;;;;;;;;;;4993598;28;25067;-72
2023/10/10 03:06:34;;;;;;;64.65;37.83;;;;;;;;;;4996850;28;25117;-70
2023/10/10 03:12:03;;;;;;;104.32;43.70;;;;;;;;;;5002433;28;25060;-72
2023/10/10 03:14:32;;;;;;;68.30;37.40;;;;;;;;;;4995843;28;25114;-70
2023/10/10 03:17:31;;;;;;;72.13;36.83;;;;;;;;;;5004519;28;25047;-72
2023/10/10 03:20:10;;;;;;;63.92;37.97;;;;;;;;;;5012965;28;25059;-70
2023/10/10 03:23:07;;;;;;;64.85;38.83;;;;;;;;;;5007402;28;25041;-72
2023/10/10 03:25:24;;;;;;;61.38;37.70;;;;;;;;;;5007253;28;25060;-72
2023/10/10 03:30:33;;;;;;;60.90;37.15;;;;;;;;;;5007953;28;25057;-71
2023/10/10 03:33:16;;;;;;;61.55;35.72;;;;;;;;;;5000898;28;25079;-72
2023/10/10 03:35:52;;;;;;;61.22;37.70;;;;;;;;;;5001775;28;25071;-73
2023/10/10 05:25:22;;;;;;;64.82;38.78;;;;;;;;;;4994731;28;25078;-72
2023/10/10 05:27:48;;;;;;;70.20;38.53;;;;;;;;;;5007135;28;25092;-72
2023/10/10 05:30:23;;;;;;;70.93;39.28;;;;;;;;;;5000611;28;25069;-72
2023/10/10 05:33:03;;;;;;;74.82;39.80;;;;;;;;;;5001797;28;25051;-74
2023/10/10 05:35:30;;;;;;;62.22;34.45;;;;;;;;;;4979194;28;25099;-73
2023/10/10 05:37:56;;;;;;;65.50;37.38;;;;;;;;;;4985599;28;25120;-73
2023/10/10 05:40:24;;;;;;;71.78;39.47;;;;;;;;;;4992430;28;25178;-74
2023/10/10 05:42:51;;;;;;;81.15;40.92;;;;;;;;;;5002976;28;25065;-73
2023/10/10 05:45:18;;;;;;;62.63;34.95;;;;;;;;;;5007440;28;25069;-73
2023/10/10 05:47:44;;;;;;;67.90;36.53;;;;;;;;;;5012992;28;25058;-72
2023/10/10 05:50:10;;;;;;;66.82;36.38;;;;;;;;;;5000188;28;25146;-71
2023/10/10 05:52:39;;;;;;;69.03;39.30;;;;;;;;;;5005946;28;25154;-71
2023/10/10 05:55:06;;;;;;;65.75;36.83;;;;;;;;;;4995439;28;25085;-71
2023/10/10 05:57:36;;;;;;;76.32;40.75;;;;;;;;;;4982439;28;25152;-72
2023/10/10 06:00:04;;;;;;;78.45;42.30;;;;;;;;;;4996277;28;25108;-72
2023/10/10 06:02:31;;;;;;;64.40;37.05;;;;;;;;;;4985811;28;25058;-74
2023/10/10 06:04:57;;;;;;;64.45;36.30;;;;;;;;;;5000818;28;25068;-73
2023/10/10 06:07:23;;;;;;;60.00;34.22;;;;;;;;;;4999280;28;25047;-73
2023/10/10 06:09:51;;;;;;;65.60;38.45;;;;;;;;;;5003279;28;25079;-76
2023/10/10 06:12:19;;;;;;;70.07;39.97;;;;;;;;;;4996688;28;25065;-74
2023/10/10 06:14:46;;;;;;;67.72;39.40;;;;;;;;;;5012648;28;25140;-74
2023/10/10 06:17:13;;;;;;;74.93;40.72;;;;;;;;;;5002617;28;25147;-74
2023/10/10 06:19:39;;;;;;;65.95;39.72;;;;;;;;;;5002487;28;25080;-74
2023/10/10 06:22:08;;;;;;;88.82;45.85;;;;;;;;;;4996204;28;25074;-73
2023/10/10 06:24:35;;;;;;;73.68;41.72;;;;;;;;;;5001294;28;25105;-73
2023/10/10 06:27:01;;;;;;;73.45;39.50;;;;;;;;;;4998807;28;25088;-76
2023/10/10 06:29:34;;;;;;;64.15;37.05;;;;;;;;;;4988029;28;25101;-75
2023/10/10 06:32:00;;;;;;;82.13;43.90;;;;;;;;;;5000530;28;25065;-74
2023/10/10 06:34:34;;;;;;;58.28;35.55;;;;;;;;;;4995133;28;25057;-74
2023/10/10 06:37:07;;;;;;;67.60;37.97;;;;;;;;;;4990276;28;25074;-74
2023/10/10 06:39:33;;;;;;;78.57;43.75;;;;;;;;;;4992931;28;25094;-74
2023/10/10 06:42:00;;;;;;;82.90;44.35;;;;;;;;;;4980983;28;25101;-76
2023/10/10 06:44:32;;;;;;;76.57;45.17;;;;;;;;;;4993297;28;25099;-73
2023/10/10 06:47:08;;;;;;;82.38;44.65;;;;;;;;;;4999468;28;25069;-72
2023/10/10 06:49:43;;;;;;;71.57;44.08;;;;;;;;;;4992721;28;25092;-72
2023/10/10 06:52:09;;;;;;;85.47;46.28;;;;;;;;;;4998592;28;25077;-71
2023/10/10 06:54:35;;;;;;;84.93;45.10;;;;;;;;;;4993406;28;25082;-71
2023/10/10 06:59:27;;;;;;;73.40;42.97;;;;;;;;;;4995279;28;25508;-71
2023/10/10 07:01:54;;;;;;;93.72;47.38;;;;;;;;;;4995161;28;25080;-73
2023/10/10 07:04:21;;;;;;;80.97;45.45;;;;;;;;;;4996036;28;25173;-72
2023/10/10 07:06:51;;;;;;;81.38;45.50;;;;;;;;;;4998281;28;25128;-71
2023/10/10 07:09:27;;;;;;;81.25;46.72;;;;;;;;;;4989165;28;25060;-72
2023/10/10 07:11:53;;;;;;;77.20;43.55;;;;;;;;;;4994936;28;25114;-70
2023/10/10 07:14:19;;;;;;;70.75;41.35;;;;;;;;;;4996570;28;25105;-72
2023/10/10 07:16:45;;;;;;;85.13;46.13;;;;;;;;;;4977774;28;25090;-74
2023/10/10 07:19:29;;;;;;;77.78;46.72;;;;;;;;;;4990865;28;25146;-70
2023/10/10 07:21:55;;;;;;;86.50;46.65;;;;;;;;;;4993619;28;25055;-70
2023/10/10 07:24:28;;;;;;;80.05;44.60;;;;;;;;;;4998225;28;25059;-70
2023/10/10 07:27:10;;;;;;;76.60;42.08;;;;;;;;;;4999210;28;25104;-71
2023/10/10 07:32:17;;;;;;;83.97;47.35;;;;;;;;;;4995873;28;25122;-69
2023/10/10 07:34:49;;;;;;;74.65;43.70;;;;;;;;;;4993185;28;25076;-73
2023/10/10 07:37:15;;;;;;;79.65;44.28;;;;;;;;;;4996345;28;25079;-71
2023/10/10 07:42:27;;;;;;;78.90;42.70;;;;;;;;;;4979167;28;25050;-72
2023/10/10 07:44:56;;;;;;;62.13;40.17;;;;;;;;;;4990907;28;25051;-72
2023/10/10 07:47:26;;;;;;;73.15;42.42;;;;;;;;;;4992912;28;25070;-70
2023/10/10 07:49:55;;;;;;;66.22;41.97;;;;;;;;;;4992156;28;25118;-72
2023/10/10 07:52:22;;;;;;;62.40;39.63;;;;;;;;;;4993324;28;25066;-71
2023/10/10 07:54:51;;;;;;;66.43;41.72;;;;;;;;;;4995890;28;25049;-71
2023/10/10 07:57:17;;;;;;;69.63;41.65;;;;;;;;;;4996542;28;25065;-71
2023/10/10 07:59:46;;;;;;;70.10;40.80;;;;;;;;;;4990081;28;25069;-70
2023/10/10 08:02:25;;;;;;;64.60;39.35;;;;;;;;;;4984206;28;25050;-72
2023/10/10 08:04:55;;;;;;;62.70;37.78;;;;;;;;;;4992898;28;25069;-70
2023/10/10 08:07:23;;;;;;;69.97;40.97;;;;;;;;;;4995317;28;25075;-71
2023/10/10 08:09:49;;;;;;;72.45;41.10;;;;;;;;;;4997572;28;25068;-73
2023/10/10 08:12:16;;;;;;;64.20;40.78;;;;;;;;;;4976089;28;25060;-72
2023/10/10 08:14:43;;;;;;;63.20;38.20;;;;;;;;;;4988949;28;25061;-70
2023/10/10 08:17:25;;;;;;;63.78;37.38;;;;;;;;;;4992731;28;25077;-69
2023/10/10 08:19:52;;;;;;;56.38;35.67;;;;;;;;;;4990376;28;25078;-70
2023/10/10 08:22:25;;;;;;;57.25;37.35;;;;;;;;;;4988088;28;25108;-71
2023/10/10 08:24:52;;;;;;;61.30;36.05;;;;;;;;;;4994362;28;25079;-71
2023/10/10 08:27:18;;;;;;;57.83;33.85;;;;;;;;;;4991015;28;25070;-71
2023/10/10 08:29:47;;;;;;;55.17;34.45;;;;;;;;;;5004053;28;25145;-69
2023/10/10 08:32:13;;;;;;;53.53;35.03;;;;;;;;;;5000136;28;25073;-70
2023/10/10 08:34:42;;;;;;;55.60;35.38;;;;;;;;;;4995241;28;25383;-70
2023/10/10 08:37:09;;;;;;;51.70;34.28;;;;;;;;;;4991936;28;25050;-69
2023/10/10 08:39:35;;;;;;;54.08;33.55;;;;;;;;;;4992736;28;25062;-71
2023/10/10 08:42:14;;;;;;;53.33;34.53;;;;;;;;;;5000035;28;25075;-70
2023/10/10 08:44:41;;;;;;;54.33;32.33;;;;;;;;;;4986404;28;25068;-70
2023/10/10 08:47:08;;;;;;;54.00;32.53;;;;;;;;;;4994685;28;25086;-70
2023/10/10 08:49:35;;;;;;;52.33;33.60;;;;;;;;;;4977860;28;25063;-71
2023/10/10 08:52:03;;;;;;;49.65;33.45;;;;;;;;;;4995327;28;25175;-70
2023/10/10 08:54:29;;;;;;;47.05;30.83;;;;;;;;;;4992916;28;25049;-70
2023/10/10 08:59:28;;;;;;;;;;;;;;;;;;4987056;28;25125;-70
2023/10/10 09:01:55;;;;;;;45.40;28.92;;;;;;;;;;4972675;28;25112;-72
2023/10/10 09:04:27;;;;;;;47.17;29.67;;;;;;;;;;4991210;28;25065;-69
2023/10/10 09:09:35;;;;;;;41.45;26.65;;;;;;;;;;4986915;28;25050;-70
2023/10/10 09:12:04;;;;;;;45.85;27.88;;;;;;;;;;4992440;28;25059;-70
2023/10/10 09:14:39;;;;;;;39.00;25.40;;;;;;;;;;4994806;28;25076;-72
2023/10/10 09:17:06;;;;;;;45.03;26.63;;;;;;;;;;4995040;28;25076;-68
2023/10/10 09:19:32;;;;;;;42.47;26.30;;;;;;;;;;4994017;28;25066;-73
2023/10/10 09:22:02;;;;;;;40.70;25.70;;;;;;;;;;4994979;28;25071;-72
2023/10/10 09:24:31;;;;;;;40.00;26.05;;;;;;;;;;4998200;28;25074;-72
2023/10/10 09:26:58;;;;;;;42.20;24.83;;;;;;;;;;4997807;28;25051;-71
2023/10/10 09:29:54;;;;;;;38.00;24.30;;;;;;;;;;4996395;28;25052;-71
2023/10/10 09:32:17;;;;;;;42.03;24.70;;;;;;;;;;4997043;28;25173;-71
2023/10/10 09:34:43;;;;;;;38.95;25.55;;;;;;;;;;4996653;28;25049;-71
2023/10/10 09:37:14;;;;;;;42.13;25.63;;;;;;;;;;5000413;28;25143;-69
2023/10/10 09:39:42;;;;;;;47.85;28.00;;;;;;;;;;4997673;28;25081;-73
2023/10/10 09:50:37;;;;;;;38.80;24.08;;;;;;;;;;4989753;28;25061;-71
2023/10/10 09:53:19;;;;;;;41.15;24.63;;;;;;;;;;4993383;28;25097;-71
2023/10/10 09:55:45;;;;;;;38.67;23.80;;;;;;;;;;4981397;28;25068;-72
2023/10/10 10:05:58;;;;;;;36.13;23.83;;;;;;;;;;5005071;28;25059;-73
2023/10/10 10:08:37;;;;;;;43.75;24.10;;;;;;;;;;4987698;28;25069;-72
2023/10/10 10:11:17;;;;;;;40.80;23.77;;;;;;;;;;5000787;28;25150;-72
2023/10/10 10:13:51;;;;;;;33.45;21.27;;;;;;;;;;4986707;28;25070;-71
2023/10/10 10:16:32;;;;;;;36.47;22.50;;;;;;;;;;4999361;28;25130;-72
2023/10/10 10:24:52;;;;;;;33.33;21.25;;;;;;;;;;4996429;28;25048;-71
2023/10/10 10:27:31;;;;;;;33.75;19.98;;;;;;;;;;4994322;28;25150;-69
2023/10/10 10:30:18;;;;;;;31.50;20.60;;;;;;;;;;4999408;28;25100;-71
2023/10/10 10:32:48;;;;;;;34.83;20.40;;;;;;;;;;4999182;28;25069;-71
2023/10/10 10:35:25;;;;;;;33.63;20.08;;;;;;;;;;4990531;28;25052;-69
2023/10/10 10:37:59;;;;;;;33.40;19.65;;;;;;;;;;4997590;28;25055;-69
2023/10/10 10:40:42;;;;;;;30.88;18.92;;;;;;;;;;4996150;28;25069;-72
2023/10/10 10:43:14;;;;;;;29.95;19.15;;;;;;;;;;4988495;28;25061;-69
2023/10/10 10:45:44;;;;;;;34.95;19.63;;;;;;;;;;4996788;28;25131;-70
2023/10/10 10:48:29;;;;;;;34.90;19.70;;;;;;;;;;4997178;28;25067;-70
2023/10/10 10:51:22;;;;;;;36.67;18.48;;;;;;;;;;4999407;28;25063;-70
2023/10/10 10:53:50;;;;;;;31.90;18.63;;;;;;;;;;4994753;28;25154;-70
2023/10/10 10:59:12;;;;;;;32.28;18.90;;;;;;;;;;4999154;28;25050;-71
2023/10/10 11:01:42;;;;;;;30.25;17.92;;;;;;;;;;4977208;28;25125;-71
2023/10/10 11:04:14;;;;;;;31.23;17.75;;;;;;;;;;4990784;28;25084;-70
2023/10/10 11:06:59;;;;;;;33.15;16.98;;;;;;;;;;4996910;28;25064;-71
2023/10/10 11:09:28;;;;;;;29.60;17.48;;;;;;;;;;4977998;28;25061;-70
2023/10/10 11:12:02;;;;;;;28.10;17.60;;;;;;;;;;4996780;28;25165;-68
2023/10/10 11:14:29;;;;;;;31.05;17.63;;;;;;;;;;5002909;28;25094;-69
2023/10/10 11:16:58;;;;;;;34.83;18.00;;;;;;;;;;4996361;28;25072;-71
2023/10/10 11:21:59;;;;;;;30.70;16.75;;;;;;;;;;4993856;28;25096;-72
2023/10/10 11:24:29;;;;;;;32.97;17.80;;;;;;;;;;4992146;28;25056;-71
2023/10/10 11:29:50;;;;;;;30.50;17.60;;;;;;;;;;4995458;28;25103;-70
2023/10/10 11:32:24;;;;;;;24.63;15.00;;;;;;;;;;4987607;28;25123;-70
2023/10/10 11:34:50;;;;;;;25.88;15.50;;;;;;;;;;4992021;28;25130;-70
2023/10/10 11:37:21;;;;;;;25.95;15.77;;;;;;;;;;4992435;28;25072;-71
2023/10/10 11:39:49;;;;;;;28.05;16.10;;;;;;;;;;4990439;28;25065;-70
2023/10/10 11:42:26;;;;;;;29.33;17.40;;;;;;;;;;4992247;28;25082;-72
2023/10/10 11:45:02;;;;;;;30.42;15.95;;;;;;;;;;4991481;28;25062;-72
2023/10/10 11:47:28;;;;;;;27.20;16.13;;;;;;;;;;4988302;28;25067;-73
2023/10/10 11:50:00;;;;;;;25.70;15.35;;;;;;;;;;4992393;28;25086;-72
2023/10/10 11:52:28;;;;;;;32.67;15.90;;;;;;;;;;4992498;28;25154;-75
2023/10/10 11:54:55;;;;;;;29.85;15.77;;;;;;;;;;4993483;28;25056;-73
2023/10/10 11:57:21;;;;;;;24.90;15.27;;;;;;;;;;4989580;28;25059;-72
2023/10/10 11:59:47;;;;;;;26.13;15.40;;;;;;;;;;4993620;28;25055;-73
2023/10/10 12:02:29;;;;;;;27.13;15.45;;;;;;;;;;4986072;28;25056;-71
2023/10/10 12:04:55;;;;;;;31.35;15.85;;;;;;;;;;4974388;28;25039;-74
2023/10/10 12:07:24;;;;;;;31.13;16.17;;;;;;;;;;4974178;28;25059;-71
2023/10/10 12:09:51;;;;;;;24.45;15.02;;;;;;;;;;4996199;28;25085;-72
2023/10/10 12:12:17;;;;;;;20.58;14.38;;;;;;;;;;4990363;28;25060;-74
2023/10/10 12:14:43;;;;;;;24.70;13.90;;;;;;;;;;4995306;28;25052;-70
2023/10/10 12:17:10;;;;;;;23.88;14.38;;;;;;;;;;4987916;28;25063;-72
2023/10/10 12:19:36;;;;;;;25.65;15.05;;;;;;;;;;4993921;28;25062;-72
2023/10/10 12:22:10;;;;;;;26.35;13.77;;;;;;;;;;4974734;28;25049;-70
2023/10/10 12:24:36;;;;;;;25.00;14.80;;;;;;;;;;4975295;28;25045;-70
2023/10/10 12:27:07;;;;;;;29.20;15.13;;;;;;;;;;4990308;28;25063;-71
2023/10/10 12:29:33;;;;;;;22.40;13.82;;;;;;;;;;4993417;28;25048;-72
2023/10/10 12:32:09;;;;;;;26.08;13.38;;;;;;;;;;4992185;28;25124;-72
2023/10/10 12:34:35;;;;;;;26.00;13.85;;;;;;;;;;4990391;28;25083;-73
2023/10/10 12:37:01;;;;;;;24.52;13.50;;;;;;;;;;4993003;28;25085;-75
2023/10/10 12:39:27;;;;;;;23.60;12.00;;;;;;;;;;4990645;28;25140;-71
2023/10/10 12:41:54;;;;;;;22.35;12.02;;;;;;;;;;4993295;28;25055;-73
2023/10/10 12:44:20;;;;;;;20.48;11.10;;;;;;;;;;4990542;28;25067;-72
2023/10/10 12:46:46;;;;;;;21.13;11.88;;;;;;;;;;4991117;28;25078;-71
2023/10/10 12:49:13;;;;;;;21.23;11.40;;;;;;;;;;4991128;28;25050;-72
2023/10/10 12:51:44;;;;;;;18.33;11.57;;;;;;;;;;4995921;28;25076;-72
2023/10/10 12:54:17;;;;;;;20.63;11.95;;;;;;;;;;4989693;28;25154;-73
2023/10/10 12:56:54;;;;;;;20.20;10.43;;;;;;;;;;4993648;28;25133;-75
2023/10/10 12:59:20;;;;;;;17.65;11.02;;;;;;;;;;4995558;28;25090;-77
2023/10/10 13:01:46;;;;;;;19.00;11.13;;;;;;;;;;4960329;28;25073;-75
2023/10/10 13:04:17;;;;;;;16.67;9.55;;;;;;;;;;4995229;28;25061;-76
2023/10/10 13:06:43;;;;;;;19.63;11.07;;;;;;;;;;4976982;28;25155;-76
2023/10/10 13:09:14;;;;;;;20.05;9.82;;;;;;;;;;4992334;28;25096;-75
2023/10/10 13:11:43;;;;;;;16.13;9.52;;;;;;;;;;4994624;28;25170;-75
2023/10/10 13:14:10;;;;;;;19.38;10.68;;;;;;;;;;4971956;28;25065;-77
2023/10/10 13:19:11;;;;;;;14.90;9.07;;;;;;;;;;4997203;28;25059;-73
2023/10/10 13:21:38;;;;;;;18.58;10.07;;;;;;;;;;4992092;28;25060;-76
2023/10/10 13:24:09;;;;;;;19.00;9.57;;;;;;;;;;4990013;28;25099;-71
2023/10/10 13:26:39;;;;;;;18.77;9.63;;;;;;;;;;4992224;28;25072;-76
2023/10/10 13:29:05;;;;;;;21.40;10.20;;;;;;;;;;4990396;28;25060;-73
2023/10/10 13:31:31;;;;;;;26.58;11.05;;;;;;;;;;4994890;28;25120;-76
2023/10/10 13:33:57;;;;;;;17.60;9.00;;;;;;;;;;4995966;28;25060;-74
2023/10/10 13:36:23;;;;;;;14.55;7.85;;;;;;;;;;5000108;28;25107;-78
2023/10/10 13:38:50;;;;;;;11.75;7.97;;;;;;;;;;5003511;28;25061;-75
2023/10/10 13:41:21;;;;;;;17.48;9.02;;;;;;;;;;4981170;28;25050;-74
2023/10/10 13:43:47;;;;;;;15.38;10.05;;;;;;;;;;4997268;28;25075;-75
2023/10/10 13:46:14;;;;;;;19.63;9.43;;;;;;;;;;5006452;28;25065;-75
2023/10/10 13:48:41;;;;;;;15.25;8.73;;;;;;;;;;5003452;28;25056;-75
2023/10/10 13:51:07;;;;;;;14.77;9.15;;;;;;;;;;5005148;28;25070;-75
2023/10/10 13:53:34;;;;;;;16.35;8.25;;;;;;;;;;5002871;28;25075;-75
2023/10/10 13:56:07;;;;;;;19.88;7.68;;;;;;;;;;4997426;28;25062;-75
2023/10/10 13:58:36;;;;;;;17.27;8.90;;;;;;;;;;4992842;28;25052;-76
2023/10/10 14:01:18;;;;;;;17.55;9.02;;;;;;;;;;4998699;28;25079;-77
2023/10/10 14:03:45;;;;;;;15.80;8.13;;;;;;;;;;4999170;28;25102;-75
2023/10/10 14:06:12;;;;;;;13.68;8.68;;;;;;;;;;4976352;28;25078;-76
2023/10/10 14:08:43;;;;;;;17.85;8.18;;;;;;;;;;4979298;28;25076;-73
2023/10/10 14:11:09;;;;;;;13.18;7.50;;;;;;;;;;4993850;28;25059;-78
2023/10/10 14:13:35;;;;;;;19.73;9.50;;;;;;;;;;4995633;28;25211;-74
2023/10/10 14:16:02;;;;;;;14.80;8.70;;;;;;;;;;4998241;28;25080;-76
2023/10/10 14:18:29;;;;;;;17.20;8.27;;;;;;;;;;4991228;28;25087;-74
2023/10/10 14:20:56;;;;;;;17.23;8.52;;;;;;;;;;5001976;28;25164;-75
2023/10/10 14:23:22;;;;;;;16.98;8.00;;;;;;;;;;4993914;28;25047;-75
2023/10/10 14:25:49;;;;;;;12.55;7.57;;;;;;;;;;4998799;28;25051;-75
2023/10/10 14:28:19;;;;;;;12.00;7.55;;;;;;;;;;4999009;28;25134;-75
2023/10/10 14:30:50;;;;;;;16.60;8.20;;;;;;;;;;5003182;28;25090;-75
2023/10/10 14:33:22;;;;;;;16.52;7.53;;;;;;;;;;4979603;28;25098;-72
2023/10/10 14:35:48;;;;;;;14.50;7.22;;;;;;;;;;5002128;28;25087;-75
2023/10/10 14:38:17;;;;;;;15.27;8.98;;;;;;;;;;5005172;28;25079;-75
2023/10/10 14:40:43;;;;;;;16.77;7.35;;;;;;;;;;4984129;28;25064;-76
2023/10/10 14:43:10;;;;;;;20.00;8.02;;;;;;;;;;5002059;28;25101;-73
2023/10/10 14:45:42;;;;;;;17.52;9.00;;;;;;;;;;4996521;28;25086;-76
2023/10/10 14:48:08;;;;;;;17.77;9.25;;;;;;;;;;4971953;28;25060;-74
2023/10/10 14:50:38;;;;;;;19.98;8.45;;;;;;;;;;5021303;28;25074;-77
2023/10/10 14:53:08;;;;;;;20.95;8.88;;;;;;;;;;4985866;28;25053;-74
2023/10/10 14:55:40;;;;;;;19.00;7.78;;;;;;;;;;5001735;28;25058;-75
2023/10/10 14:58:09;;;;;;;15.75;7.60;;;;;;;;;;4988261;28;25072;-72
2023/10/10 15:00:40;;;;;;;15.20;7.57;;;;;;;;;;4995397;28;25111;-76
2023/10/10 15:03:12;;;;;;;12.65;6.95;;;;;;;;;;4990901;28;25098;-73
2023/10/10 15:05:51;;;;;;;11.38;7.03;;;;;;;;;;4989187;28;25148;-72
2023/10/10 15:08:19;;;;;;;14.57;7.40;;;;;;;;;;5004154;28;25084;-75
2023/10/10 15:10:53;;;;;;;15.80;7.40;;;;;;;;;;4995553;28;25098;-74
2023/10/10 15:13:19;;;;;;;12.50;6.80;;;;;;;;;;5009020;28;25126;-74
2023/10/10 15:15:45;;;;;;;12.18;6.05;;;;;;;;;;5001052;28;25062;-74
2023/10/10 15:18:15;;;;;;;13.77;6.47;;;;;;;;;;5006675;28;25049;-75
2023/10/10 15:20:46;;;;;;;15.27;6.57;;;;;;;;;;4995800;28;25123;-73
2023/10/10 15:23:19;;;;;;;16.98;7.25;;;;;;;;;;4998656;28;25103;-74
2023/10/10 15:25:54;;;;;;;17.83;6.93;;;;;;;;;;5003078;28;25115;-74
2023/10/10 15:28:20;;;;;;;16.00;7.47;;;;;;;;;;5004395;28;25064;-75
2023/10/10 15:30:46;;;;;;;10.90;5.75;;;;;;;;;;4997438;28;25102;-74
2023/10/10 15:33:17;;;;;;;10.77;5.90;;;;;;;;;;4997851;28;25099;-75
2023/10/10 15:35:46;;;;;;;10.88;5.65;;;;;;;;;;4994153;28;25127;-79
2023/10/10 15:38:12;;;;;;;12.23;5.35;;;;;;;;;;4986941;28;25074;-74
2023/10/10 15:40:43;;;;;;;12.30;5.75;;;;;;;;;;4997165;28;25076;-75
2023/10/10 15:43:12;;;;;;;10.27;5.93;;;;;;;;;;4995488;28;25066;-75
2023/10/10 15:45:42;;;;;;;11.60;5.75;;;;;;;;;;4998513;28;25123;-72
2023/10/10 15:48:21;;;;;;;13.50;6.07;;;;;;;;;;4993899;28;25128;-75
2023/10/10 15:50:48;;;;;;;16.23;5.90;;;;;;;;;;4998838;28;25061;-74
2023/10/10 15:53:14;;;;;;;13.18;6.03;;;;;;;;;;4979805;28;25066;-76
2023/10/10 15:55:40;;;;;;;12.27;6.00;;;;;;;;;;4994526;28;25063;-74
2023/10/10 15:58:07;;;;;;;19.85;6.35;;;;;;;;;;5005554;28;25065;-72
2023/10/10 16:00:33;;;;;;;13.85;5.55;;;;;;;;;;5001430;28;25179;-72
2023/10/10 16:02:59;;;;;;;12.60;6.28;;;;;;;;;;4999216;28;25060;-71
2023/10/10 16:05:25;;;;;;;13.88;6.13;;;;;;;;;;5003518;28;25077;-71
2023/10/10 16:07:51;;;;;;;10.45;5.63;;;;;;;;;;4985525;28;25105;-71
2023/10/10 16:10:18;;;;;;;10.80;5.55;;;;;;;;;;4962716;28;25078;-75
2023/10/10 16:12:44;;;;;;;12.20;6.38;;;;;;;;;;4979479;28;25065;-73
2023/10/10 16:15:19;;;;;;;14.68;5.35;;;;;;;;;;5001171;28;25094;-72
2023/10/10 16:17:46;;;;;;;15.77;6.65;;;;;;;;;;4998189;28;25068;-74
2023/10/10 16:20:12;;;;;;;13.20;5.25;;;;;;;;;;4993640;28;25050;-72
2023/10/10 16:22:40;;;;;;;8.48;5.03;;;;;;;;;;4996736;28;25073;-75
2023/10/10 16:25:07;;;;;;;10.43;5.18;;;;;;;;;;5009495;28;25049;-73
2023/10/10 16:27:33;;;;;;;16.40;5.45;;;;;;;;;;5006242;28;25054;-75
2023/10/10 16:30:00;;;;;;;14.80;5.88;;;;;;;;;;4976826;28;25106;-75
2023/10/10 16:32:27;;;;;;;9.52;5.03;;;;;;;;;;5002427;28;25210;-75
2023/10/10 16:34:53;;;;;;;12.70;5.10;;;;;;;;;;4998014;28;25110;-75
2023/10/10 16:37:20;;;;;;;10.38;5.53;;;;;;;;;;5000143;28;25081;-76
2023/10/10 16:39:47;;;;;;;10.63;5.18;;;;;;;;;;4991959;28;25063;-74
2023/10/10 16:42:19;;;;;;;11.88;5.32;;;;;;;;;;5003473;28;25170;-76
2023/10/10 16:44:46;;;;;;;11.15;4.63;;;;;;;;;;4984552;28;25073;-76
2023/10/10 16:47:16;;;;;;;11.15;5.03;;;;;;;;;;4971379;28;25051;-75
2023/10/10 16:49:42;;;;;;;8.18;4.78;;;;;;;;;;4998929;28;25089;-74
2023/10/10 16:52:08;;;;;;;10.45;5.75;;;;;;;;;;5000855;28;25106;-75
2023/10/10 16:54:34;;;;;;;12.50;5.40;;;;;;;;;;4981201;28;25080;-76
2023/10/10 16:57:00;;;;;;;11.30;5.55;;;;;;;;;;4996353;28;25073;-76
2023/10/10 16:59:26;;;;;;;13.88;5.55;;;;;;;;;;5000591;28;25089;-74
2023/10/10 17:01:52;;;;;;;11.95;5.00;;;;;;;;;;4998789;28;25060;-75
2023/10/10 17:04:18;;;;;;;17.95;5.07;;;;;;;;;;4997896;28;25068;-75
2023/10/10 17:06:48;;;;;;;6.85;3.70;;;;;;;;;;4991175;28;25069;-72
2023/10/10 17:09:14;;;;;;;12.65;4.78;;;;;;;;;;4998136;28;25077;-77
2023/10/10 17:11:40;;;;;;;12.10;6.25;;;;;;;;;;5005541;28;25061;-75
2023/10/10 17:14:06;;;;;;;15.25;5.30;;;;;;;;;;5004702;28;25071;-76
2023/10/10 17:16:33;;;;;;;11.60;4.97;;;;;;;;;;4972457;28;25052;-75
2023/10/10 17:18:59;;;;;;;10.15;4.88;;;;;;;;;;4983131;28;25065;-75
2023/10/10 17:21:27;;;;;;;11.38;4.43;;;;;;;;;;4997994;28;25126;-73
2023/10/10 17:23:56;;;;;;;10.98;4.70;;;;;;;;;;4995366;28;25132;-75
2023/10/10 17:26:23;;;;;;;11.20;5.40;;;;;;;;;;4998095;28;25061;-70
2023/10/10 17:28:50;;;;;;;11.60;5.03;;;;;;;;;;5000618;28;25153;-74
2023/10/10 17:31:26;;;;;;;12.07;4.50;;;;;;;;;;4991895;28;25062;-74
2023/10/10 17:33:53;;;;;;;8.98;4.55;;;;;;;;;;5004364;28;25097;-74